virtualACA

Welcome To Calgary International Airport CYYC

Hub Roster

Pilot Domicile Rank
Ethan Title - ACA1641CanadaChief Pilot
Graham Dawson - ACA2317CanadaChief Pilot
Roger Godden - ACA2339CanadaChief Pilot
Hamir Hamir - ACA2906CanadaFirst Officer
Jake Moerland - ACA3058CanadaSenior Officer
Pam Magee - ACA3207CanadaSenior Officer

Current Vatsim Weather


CYYC 162200Z 17004KT 30SM FEW076 FEW130 BKN230 02/M05 A2974 RMK AC1AC2CI3 AC TR SLP121
Calgary International Airport